createdAt,value
2023-01-02T00:02:08.229Z,2.08
2023-01-02T00:04:35.071Z,2.41
2023-01-02T00:07:01.943Z,2.48
2023-01-02T00:09:28.710Z,1.84
2023-01-02T00:11:55.577Z,1.74
2023-01-02T00:14:22.477Z,1.61
2023-01-02T00:16:49.158Z,1.50
2023-01-02T00:19:15.997Z,1.47
2023-01-02T00:21:42.861Z,1.51
2023-01-02T00:24:09.791Z,1.50
2023-01-02T00:26:36.545Z,1.51
2023-01-02T00:29:06.528Z,2.23
2023-01-02T00:31:33.401Z,1.68
2023-01-02T00:34:00.315Z,2.00
2023-01-02T00:36:28.206Z,2.06
2023-01-02T00:38:56.655Z,1.84
2023-01-02T00:41:23.915Z,1.85
2023-01-02T00:43:50.916Z,1.80
2023-01-02T00:46:18.878Z,1.73
2023-01-02T00:48:45.707Z,1.87
2023-01-02T00:51:12.531Z,1.92
2023-01-02T00:53:39.286Z,1.54
2023-01-02T00:56:06.300Z,1.72
2023-01-02T00:58:33.321Z,2.01
2023-01-02T01:01:00.339Z,2.12
2023-01-02T01:03:27.282Z,2.20
2023-01-02T01:05:54.127Z,1.77
2023-01-02T01:08:21.051Z,1.52
2023-01-02T01:10:47.903Z,1.51
2023-01-02T01:13:14.793Z,1.59
2023-01-02T01:15:41.583Z,1.65
2023-01-02T01:18:08.381Z,1.57
2023-01-02T01:20:39.378Z,1.28
2023-01-02T01:23:06.194Z,1.36
2023-01-02T01:25:36.809Z,1.10
2023-01-02T01:28:03.774Z,0.99
2023-01-02T01:30:30.557Z,1.21
2023-01-02T01:32:58.364Z,1.12
2023-01-02T01:35:26.499Z,1.71
2023-01-02T01:37:53.293Z,1.82
2023-01-02T01:40:23.116Z,1.77
2023-01-02T01:42:50.437Z,1.77
2023-01-02T01:45:18.869Z,1.71
2023-01-02T01:47:52.721Z,1.62
2023-01-02T01:50:24.104Z,1.62
2023-01-02T01:52:58.081Z,1.59
2023-01-02T01:55:35.266Z,1.65
2023-01-02T01:58:09.875Z,1.71
2023-01-02T02:00:37.460Z,1.28
2023-01-02T02:03:11.504Z,1.21
2023-01-02T02:05:41.380Z,1.10
2023-01-02T02:08:18.607Z,1.11
2023-01-02T02:10:45.902Z,1.13
2023-01-02T02:13:13.079Z,1.21
2023-01-02T02:15:53.111Z,0.88
2023-01-02T02:18:34.643Z,1.08
2023-01-02T02:21:26.298Z,1.37
2023-01-02T02:24:18.979Z,0.89
2023-01-02T02:27:16.890Z,0.90
2023-01-02T02:30:17.475Z,0.80
2023-01-02T02:32:59.479Z,1.26
2023-01-02T02:35:49.369Z,1.28
2023-01-02T02:38:51.107Z,1.36
2023-01-02T02:41:52.185Z,1.41
2023-01-02T02:44:41.689Z,0.89
2023-01-02T02:47:35.951Z,1.08
2023-01-02T02:50:34.458Z,1.05
2023-01-02T02:53:20.718Z,0.83
2023-01-02T02:55:52.258Z,0.85
2023-01-02T02:58:20.858Z,0.99
2023-01-02T03:00:47.967Z,0.88
2023-01-02T03:03:21.802Z,0.78
2023-01-02T03:06:15.587Z,0.90
2023-01-02T03:08:50.325Z,1.00
2023-01-02T03:11:17.348Z,0.74
2023-01-02T03:14:23.580Z,0.88
2023-01-02T03:17:01.113Z,0.91
2023-01-02T03:19:47.968Z,1.30
2023-01-02T03:22:23.372Z,1.16
2023-01-02T03:24:54.424Z,1.18
2023-01-02T03:27:34.058Z,1.19
2023-01-02T03:30:03.870Z,1.22
2023-01-02T03:32:36.819Z,0.71
2023-01-02T03:35:35.083Z,1.13
2023-01-02T03:38:05.767Z,1.02
2023-01-02T03:40:43.307Z,0.94
2023-01-02T03:43:16.127Z,0.80
2023-01-02T03:46:29.687Z,0.68
2023-01-02T03:49:00.265Z,0.68
2023-01-02T03:51:27.624Z,0.59
2023-01-02T03:53:55.261Z,0.75
2023-01-02T03:56:59.693Z,0.57
2023-01-02T04:00:06.626Z,0.61
2023-01-02T04:02:45.367Z,0.89
2023-01-02T04:05:12.324Z,0.69
2023-01-02T04:07:47.693Z,0.58
2023-01-02T04:10:18.812Z,0.54
2023-01-02T04:12:51.394Z,0.72
2023-01-02T04:15:22.091Z,0.76
2023-01-02T04:17:55.940Z,1.04
2023-01-02T04:20:33.889Z,1.15
2023-01-02T04:23:13.515Z,1.26
2023-01-02T04:25:50.406Z,1.10
2023-01-02T04:28:29.028Z,1.65
2023-01-02T04:31:11.054Z,1.21
2023-01-02T04:33:44.085Z,1.21
2023-01-02T04:36:13.539Z,1.17
2023-01-02T04:38:42.498Z,1.19
2023-01-02T04:41:10.465Z,1.35
2023-01-02T04:43:37.378Z,1.71
2023-01-02T04:46:04.266Z,1.38
2023-01-02T04:48:31.102Z,1.22
2023-01-02T04:50:57.975Z,1.22
2023-01-02T04:53:24.772Z,1.43
2023-01-02T04:55:58.064Z,1.09
2023-01-02T04:58:26.960Z,1.33
2023-01-02T05:00:57.033Z,1.44
2023-01-02T05:03:26.672Z,1.34
2023-01-02T05:06:01.100Z,0.82
2023-01-02T05:08:30.117Z,0.76
2023-01-02T05:10:58.490Z,1.20
2023-01-02T05:13:25.259Z,0.86
2023-01-02T05:15:57.176Z,0.79
2023-01-02T05:18:25.792Z,0.77
2023-01-02T05:20:52.768Z,0.93
2023-01-02T05:23:38.108Z,1.18
2023-01-02T05:26:11.965Z,0.91
2023-01-02T05:28:39.488Z,1.10
2023-01-02T05:31:06.385Z,1.53
2023-01-02T05:33:33.251Z,1.44
2023-01-02T05:36:00.281Z,1.54
2023-01-02T05:38:27.344Z,1.59
2023-01-02T05:41:03.781Z,1.09
2023-01-02T05:43:36.469Z,1.12
2023-01-02T05:46:17.956Z,0.68
2023-01-02T05:48:45.582Z,1.29
2023-01-02T05:51:14.621Z,1.15
2023-01-02T05:53:42.093Z,0.86
2023-01-02T05:56:13.210Z,0.79
2023-01-02T05:58:42.038Z,0.81
2023-01-02T06:01:12.440Z,1.26
2023-01-02T06:03:39.720Z,1.21
2023-01-02T06:06:10.944Z,1.11
2023-01-02T06:08:38.701Z,0.94
2023-01-02T06:11:12.275Z,0.97
2023-01-02T06:13:39.759Z,0.62
2023-01-02T06:16:08.908Z,0.65
2023-01-02T06:18:40.244Z,0.54
2023-01-02T06:21:09.784Z,0.72
2023-01-02T06:23:37.259Z,0.51
2023-01-02T06:26:09.819Z,0.71
2023-01-02T06:28:36.664Z,0.73
2023-01-02T06:31:06.525Z,0.65
2023-01-02T06:33:34.038Z,0.69
2023-01-02T06:36:04.589Z,0.49
2023-01-02T06:38:32.073Z,0.95
2023-01-02T06:41:01.441Z,0.65
2023-01-02T06:43:30.615Z,0.86
2023-01-02T06:45:59.041Z,0.76
2023-01-02T06:48:26.267Z,0.76
2023-01-02T06:50:53.441Z,1.07
2023-01-02T06:53:20.564Z,0.84
2023-01-02T06:55:56.069Z,1.12
2023-01-02T06:58:23.454Z,1.26
2023-01-02T07:00:51.848Z,0.85
2023-01-02T07:03:19.119Z,1.17
2023-01-02T07:05:45.945Z,1.02
2023-01-02T07:08:15.847Z,1.16
2023-01-02T07:10:44.562Z,1.10
2023-01-02T07:13:13.390Z,1.13
2023-01-02T07:15:40.160Z,1.29
2023-01-02T07:18:08.198Z,1.32
2023-01-02T07:20:34.873Z,0.85
2023-01-02T07:23:02.145Z,1.48
2023-01-02T07:25:28.819Z,1.64
2023-01-02T07:27:59.260Z,1.55
2023-01-02T07:30:26.137Z,1.66
2023-01-02T07:32:53.781Z,1.27
2023-01-02T07:35:20.439Z,1.45
2023-01-02T07:37:49.360Z,2.11
2023-01-02T07:40:16.234Z,1.95
2023-01-02T07:42:42.869Z,2.16
2023-01-02T07:45:10.098Z,2.28
2023-01-02T07:47:36.846Z,2.14
2023-01-02T07:50:03.707Z,1.90
2023-01-02T07:52:30.672Z,1.56
2023-01-02T07:54:57.455Z,1.88
2023-01-02T07:57:24.174Z,1.93
2023-01-02T07:59:51.570Z,1.70
2023-01-02T08:02:18.500Z,1.92
2023-01-02T08:04:45.284Z,2.14
2023-01-02T08:07:12.091Z,1.82
2023-01-02T08:09:38.885Z,1.84
2023-01-02T08:12:06.011Z,1.75
2023-01-02T08:14:32.822Z,2.05
2023-01-02T08:16:59.530Z,2.12
2023-01-02T08:19:26.473Z,2.19
2023-01-02T08:21:53.503Z,2.30
2023-01-02T08:24:20.345Z,2.06
2023-01-02T08:26:47.141Z,2.24
2023-01-02T08:29:13.887Z,2.06
2023-01-02T08:31:43.836Z,2.00
2023-01-02T08:34:14.746Z,2.28
2023-01-02T08:36:42.409Z,2.26
2023-01-02T08:39:09.260Z,2.00
2023-01-02T08:41:38.566Z,2.31
2023-01-02T08:44:06.497Z,2.08
2023-01-02T08:46:42.004Z,2.06
2023-01-02T08:49:09.490Z,2.39
2023-01-02T08:51:36.208Z,2.10
2023-01-02T08:54:02.964Z,2.10
2023-01-02T08:56:32.255Z,2.14
2023-01-02T08:59:00.624Z,2.09
2023-01-02T09:01:29.184Z,1.98
2023-01-02T09:03:57.044Z,1.97
2023-01-02T09:06:25.479Z,2.00
2023-01-02T09:08:55.472Z,2.03
2023-01-02T09:11:26.927Z,1.82
2023-01-02T09:13:53.990Z,2.10
2023-01-02T09:16:21.768Z,2.19
2023-01-02T09:18:48.894Z,2.18
2023-01-02T09:21:16.082Z,2.57
2023-01-02T09:23:42.864Z,2.22
2023-01-02T09:26:13.121Z,2.49
2023-01-02T09:28:39.974Z,2.64
2023-01-02T09:31:12.301Z,2.63
2023-01-02T09:33:41.168Z,2.84
2023-01-02T09:36:10.801Z,2.46
2023-01-02T09:38:38.013Z,3.16
2023-01-02T09:41:15.409Z,2.52
2023-01-02T09:43:46.927Z,2.49
2023-01-02T09:46:26.899Z,2.60
2023-01-02T09:48:54.165Z,2.42
2023-01-02T09:51:21.146Z,2.53
2023-01-02T09:53:48.231Z,2.83
2023-01-02T09:56:27.540Z,2.96
2023-01-02T09:59:08.160Z,3.00
2023-01-02T10:01:46.383Z,2.82
2023-01-02T10:04:20.170Z,2.69
2023-01-02T10:06:59.154Z,2.92
2023-01-02T10:09:42.379Z,2.92
2023-01-02T10:12:20.996Z,3.12
2023-01-02T10:14:56.307Z,3.04
2023-01-02T10:17:25.662Z,3.05
2023-01-02T10:20:04.469Z,3.13
2023-01-02T10:22:49.760Z,2.94
2023-01-02T10:25:22.393Z,3.07
2023-01-02T10:28:09.565Z,3.09
2023-01-02T10:30:50.917Z,3.45
2023-01-02T10:33:31.555Z,3.11
2023-01-02T10:36:01.993Z,3.17
2023-01-02T10:38:39.544Z,3.04
2023-01-02T10:41:06.942Z,3.18
2023-01-02T10:43:35.126Z,3.37
2023-01-02T10:46:03.172Z,3.60
2023-01-02T10:48:34.398Z,3.88
2023-01-02T10:51:11.939Z,3.88
2023-01-02T10:53:39.155Z,3.82
2023-01-02T10:56:17.108Z,3.73
2023-01-02T10:58:49.143Z,4.31
2023-01-02T11:01:19.298Z,3.92
2023-01-02T11:04:09.909Z,4.02
2023-01-02T11:06:49.958Z,4.12
2023-01-02T11:09:26.515Z,4.11
2023-01-02T11:11:58.237Z,3.98
2023-01-02T11:14:36.093Z,4.13
2023-01-02T11:17:22.210Z,4.49
2023-01-02T11:19:55.042Z,4.36
2023-01-02T11:22:32.300Z,4.27
2023-01-02T11:25:04.112Z,4.27
2023-01-02T11:27:38.066Z,4.20
2023-01-02T11:30:07.952Z,4.73
2023-01-02T11:32:41.281Z,4.60
2023-01-02T11:35:34.120Z,4.63
2023-01-02T11:38:02.867Z,4.66
2023-01-02T11:40:32.083Z,4.82
2023-01-02T11:43:24.028Z,5.09
2023-01-02T11:45:52.451Z,5.22
2023-01-02T11:48:22.912Z,5.03
2023-01-02T11:50:53.977Z,5.37
2023-01-02T11:53:26.297Z,5.42
2023-01-02T11:56:34.243Z,5.62
2023-01-02T11:59:05.800Z,5.67
2023-01-02T12:01:46.531Z,5.43
2023-01-02T12:04:14.171Z,5.62
2023-01-02T12:07:04.254Z,5.72
2023-01-02T12:09:39.687Z,5.90
2023-01-02T12:12:17.281Z,6.01
2023-01-02T12:15:05.286Z,6.33
2023-01-02T12:17:35.070Z,6.22
2023-01-02T12:20:32.533Z,6.29
2023-01-02T12:23:47.142Z,6.29
2023-01-02T12:26:19.627Z,6.85
2023-01-02T12:29:47.924Z,6.45
2023-01-02T12:49:28.456Z,7.19
2023-01-02T12:52:08.826Z,7.45
2023-01-02T12:54:52.498Z,7.70
2023-01-02T12:58:13.070Z,7.67
2023-01-02T13:00:57.383Z,7.91
2023-01-02T13:03:52.109Z,7.93
2023-01-02T13:06:44.679Z,8.03
2023-01-02T13:09:24.199Z,7.81
2023-01-02T13:12:16.720Z,8.22
2023-01-02T13:15:24.933Z,8.17
2023-01-02T13:17:51.893Z,8.17
2023-01-02T13:20:36.481Z,8.12
2023-01-02T13:36:47.693Z,8.00
2023-01-02T14:06:55.558Z,8.13
2023-01-02T14:56:53.158Z,7.76
2023-01-02T14:59:30.047Z,7.56
2023-01-02T15:02:13.011Z,7.30
2023-01-02T15:04:46.371Z,7.28
2023-01-02T15:07:33.440Z,7.21
2023-01-02T15:10:13.558Z,7.07
2023-01-02T15:13:04.808Z,6.99
2023-01-02T15:15:34.687Z,7.02
2023-01-02T15:18:17.294Z,7.05
2023-01-02T15:20:50.577Z,6.93
2023-01-02T15:23:23.305Z,6.86
2023-01-02T15:26:31.932Z,6.77
2023-01-02T15:28:39.918Z,7.02
2023-01-02T15:31:16.123Z,6.90
2023-01-02T15:33:42.875Z,6.83
2023-01-02T15:36:16.295Z,6.88
2023-01-02T15:38:44.035Z,6.50
2023-01-02T15:41:18.782Z,6.27
2023-01-02T15:44:05.217Z,6.40
2023-01-02T15:46:32.269Z,6.15
2023-01-02T15:49:00.477Z,6.31
2023-01-02T15:51:39.696Z,6.48
2023-01-02T15:54:13.822Z,6.33
2023-01-02T15:56:41.606Z,6.17
2023-01-02T15:59:28.102Z,6.25
2023-01-02T16:01:55.898Z,6.36
2023-01-02T16:04:28.521Z,6.18
2023-01-02T16:06:57.561Z,6.34
2023-01-02T16:09:31.310Z,6.29
2023-01-02T16:12:03.530Z,6.17
2023-01-02T16:14:39.248Z,6.30
2023-01-02T16:17:21.296Z,6.24
2023-01-02T16:19:59.933Z,6.13
2023-01-02T16:22:44.617Z,6.04
2023-01-02T16:25:20.562Z,6.11
2023-01-02T16:27:59.730Z,6.05
2023-01-02T16:30:44.165Z,5.94
2023-01-02T16:33:30.545Z,6.04
2023-01-02T16:36:05.075Z,5.96
2023-01-02T16:38:45.664Z,6.00
2023-01-02T16:41:38.327Z,5.88
2023-01-02T16:44:17.941Z,5.84
2023-01-02T16:46:47.032Z,5.74
2023-01-02T16:49:19.935Z,5.59
2023-01-02T16:51:50.045Z,5.56
2023-01-02T16:54:21.007Z,5.07
2023-01-02T16:56:48.907Z,4.75
2023-01-02T16:59:15.768Z,4.76
2023-01-02T17:01:42.767Z,4.49
2023-01-02T17:04:12.693Z,4.76
2023-01-02T17:06:39.720Z,4.76
2023-01-02T17:09:06.824Z,4.72
2023-01-02T17:11:33.612Z,4.72
2023-01-02T17:14:01.332Z,4.38
2023-01-02T17:16:28.530Z,4.72
2023-01-02T17:18:55.499Z,4.65
2023-01-02T17:21:25.183Z,4.43
2023-01-02T17:23:59.228Z,4.49
2023-01-02T17:26:26.054Z,4.55
2023-01-02T17:28:56.725Z,4.37
2023-01-02T17:31:26.044Z,4.47
2023-01-02T17:33:53.223Z,4.52
2023-01-02T17:36:20.065Z,4.53
2023-01-02T17:38:46.919Z,4.53
2023-01-02T17:44:01.749Z,4.31
2023-01-02T17:47:05.092Z,4.16
2023-01-02T17:49:18.430Z,4.11
2023-01-02T17:51:45.345Z,4.13
2023-01-02T17:54:12.997Z,4.23
2023-01-02T17:56:39.914Z,4.50
2023-01-02T17:59:06.797Z,4.81
2023-01-02T18:01:34.156Z,4.82
2023-01-02T18:04:01.498Z,4.64
2023-01-02T18:06:28.336Z,4.47
2023-01-02T18:08:55.958Z,4.92
2023-01-02T18:11:23.375Z,4.84
2023-01-02T18:13:53.055Z,4.70
2023-01-02T18:16:29.640Z,4.78
2023-01-02T18:18:56.712Z,4.80
2023-01-02T18:21:28.728Z,4.52
2023-01-02T18:24:02.496Z,4.58
2023-01-02T18:26:31.542Z,4.29
2023-01-02T18:29:09.043Z,4.32
2023-01-02T18:31:42.105Z,4.44
2023-01-02T18:34:46.267Z,4.28
2023-01-02T18:37:15.850Z,4.07
2023-01-02T18:39:43.355Z,4.13
2023-01-02T18:42:17.350Z,4.24
2023-01-02T18:44:44.607Z,3.87
2023-01-02T18:47:34.977Z,3.52
2023-01-02T18:50:23.433Z,3.45
2023-01-02T18:52:51.893Z,3.49
2023-01-02T18:55:35.414Z,3.33
2023-01-02T18:58:11.980Z,3.28
2023-01-02T19:00:40.159Z,3.10
2023-01-02T19:03:22.792Z,3.24
2023-01-02T19:05:49.893Z,3.22
2023-01-02T19:08:31.103Z,3.16
2023-01-02T19:11:19.679Z,3.29
2023-01-02T19:13:46.614Z,3.32
2023-01-02T19:16:22.682Z,3.17
2023-01-02T19:18:54.182Z,3.37
2023-01-02T19:21:31.877Z,3.21
2023-01-02T19:24:02.278Z,3.26
2023-01-02T19:26:44.439Z,3.14
2023-01-02T19:29:13.960Z,3.18
2023-01-02T19:31:49.921Z,3.16
2023-01-02T19:34:27.613Z,3.17
2023-01-02T19:37:13.042Z,3.20
2023-01-02T19:39:55.970Z,3.26
2023-01-02T19:42:26.390Z,3.20
2023-01-02T19:44:56.732Z,3.23
2023-01-02T19:47:30.175Z,2.99
2023-01-02T19:49:57.983Z,3.03
2023-01-02T19:52:26.428Z,2.92
2023-01-02T19:54:53.706Z,3.20
2023-01-02T19:57:21.545Z,3.52
2023-01-02T19:59:52.449Z,3.36
2023-01-02T20:02:21.247Z,2.78
2023-01-02T20:04:50.413Z,2.88
2023-01-02T20:07:17.467Z,2.72
2023-01-02T20:09:45.199Z,2.75
2023-01-02T20:12:34.723Z,2.81
2023-01-02T20:15:11.822Z,2.63
2023-01-02T20:17:39.704Z,2.58
2023-01-02T20:20:11.154Z,2.50
2023-01-02T20:23:12.755Z,2.54
2023-01-02T20:25:42.047Z,2.50
2023-01-02T20:36:41.162Z,2.38
2023-01-02T20:39:08.961Z,2.38
2023-01-02T20:41:38.769Z,2.99
2023-01-02T20:44:11.158Z,2.50
2023-01-02T20:46:38.830Z,2.57
2023-01-02T20:49:06.754Z,2.66
2023-01-02T20:51:35.412Z,2.41
2023-01-02T20:54:03.830Z,2.66
2023-01-02T20:56:31.440Z,2.67
2023-01-02T20:58:59.065Z,2.54
2023-01-02T21:01:26.270Z,2.18
2023-01-02T21:03:53.539Z,2.39
2023-01-02T21:06:20.573Z,2.57
2023-01-02T21:08:47.489Z,2.54
2023-01-02T21:11:14.283Z,2.33
2023-01-02T21:13:41.209Z,2.15
2023-01-02T21:16:08.337Z,2.04
2023-01-02T21:18:37.845Z,2.10
2023-01-02T21:21:15.735Z,2.11
2023-01-02T21:23:42.840Z,2.16
2023-01-02T21:26:12.437Z,2.09
2023-01-02T21:28:39.427Z,1.91
2023-01-02T21:31:11.405Z,1.86
2023-01-02T21:33:38.754Z,1.86
2023-01-02T21:36:08.725Z,1.89
2023-01-02T21:38:41.530Z,2.09
2023-01-02T21:41:26.986Z,2.16
2023-01-02T21:43:53.846Z,1.97
2023-01-02T21:46:20.877Z,2.05
2023-01-02T21:48:47.826Z,1.81
2023-01-02T21:51:14.859Z,2.24
2023-01-02T21:53:41.684Z,2.07
2023-01-02T21:56:08.850Z,2.05
2023-01-02T21:58:36.076Z,1.88
2023-01-02T22:01:03.117Z,1.80
2023-01-02T22:03:30.065Z,2.09
2023-01-02T22:05:57.638Z,2.49
2023-01-02T22:08:24.544Z,2.84
2023-01-02T22:10:51.580Z,2.51
2023-01-02T22:13:18.403Z,2.19
2023-01-02T22:16:13.437Z,2.73
2023-01-02T22:18:43.287Z,2.29
2023-01-02T22:29:08.776Z,1.63
2023-01-02T22:31:38.273Z,1.51
2023-01-02T22:34:13.844Z,1.63
2023-01-02T22:36:40.736Z,1.61
2023-01-02T22:39:27.551Z,1.56
2023-01-02T22:42:49.379Z,1.87
2023-01-02T22:45:06.323Z,1.78
2023-01-02T22:47:37.518Z,1.58
2023-01-02T22:50:12.109Z,1.46
2023-01-02T22:52:39.803Z,1.82
2023-01-02T22:55:26.819Z,1.82
2023-01-02T22:57:54.190Z,1.92
2023-01-02T23:00:25.273Z,2.03
2023-01-02T23:02:52.197Z,1.99
2023-01-02T23:05:21.240Z,1.75
2023-01-02T23:07:50.089Z,1.24
2023-01-02T23:10:17.435Z,1.20
2023-01-02T23:12:44.554Z,1.37
2023-01-02T23:15:13.455Z,1.36
2023-01-02T23:17:59.820Z,1.29
2023-01-02T23:20:27.228Z,1.18
2023-01-02T23:22:54.324Z,1.16
2023-01-02T23:25:21.772Z,1.17
2023-01-02T23:27:48.965Z,1.36
2023-01-02T23:30:16.170Z,1.31
2023-01-02T23:32:43.188Z,1.17
2023-01-02T23:35:11.200Z,1.39
2023-01-02T23:37:38.133Z,1.67
2023-01-02T23:40:05.447Z,1.20
2023-01-02T23:42:32.285Z,1.27
2023-01-02T23:44:59.644Z,1.20
2023-01-02T23:47:26.537Z,1.07
2023-01-02T23:49:53.266Z,0.94
2023-01-02T23:52:20.013Z,0.97
2023-01-02T23:54:46.910Z,1.27
2023-01-02T23:57:13.898Z,1.21
2023-01-02T23:59:40.721Z,1.68
